sensor_id;sensor_type;location;lat;lon;timestamp;temperature;humidity
14893;DHT22;7538;53.626;9.906;2022-09-09T00:00:12;15.90;99.90
14893;DHT22;7538;53.626;9.906;2022-09-09T00:02:41;15.50;99.90
14893;DHT22;7538;53.626;9.906;2022-09-09T00:05:16;15.60;99.90
14893;DHT22;7538;53.626;9.906;2022-09-09T00:07:47;15.60;99.90
14893;DHT22;7538;53.626;9.906;2022-09-09T00:10:20;15.70;99.90
14893;DHT22;7538;53.626;9.906;2022-09-09T00:12:54;15.50;99.90
14893;DHT22;7538;53.626;9.906;2022-09-09T00:15:28;15.60;99.90
14893;DHT22;7538;53.626;9.906;2022-09-09T00:18:03;15.80;99.90
14893;DHT22;7538;53.626;9.906;2022-09-09T00:20:39;15.50;99.90
14893;DHT22;7538;53.626;9.906;2022-09-09T00:23:14;15.60;99.90
14893;DHT22;7538;53.626;9.906;2022-09-09T00:25:53;15.60;99.90
14893;DHT22;7538;53.626;9.906;2022-09-09T00:28:23;15.60;99.90
14893;DHT22;7538;53.626;9.906;2022-09-09T00:30:52;15.60;99.90
14893;DHT22;7538;53.626;9.906;2022-09-09T00:33:23;15.60;99.90
14893;DHT22;7538;53.626;9.906;2022-09-09T00:35:54;15.70;99.90
14893;DHT22;7538;53.626;9.906;2022-09-09T00:38:25;15.60;99.90
14893;DHT22;7538;53.626;9.906;2022-09-09T00:40:59;15.90;99.90
14893;DHT22;7538;53.626;9.906;2022-09-09T00:43:29;15.60;99.90
14893;DHT22;7538;53.626;9.906;2022-09-09T00:46:15;15.60;99.90
14893;DHT22;7538;53.626;9.906;2022-09-09T00:48:52;15.70;99.90
14893;DHT22;7538;53.626;9.906;2022-09-09T00:51:30;15.80;99.90
14893;DHT22;7538;53.626;9.906;2022-09-09T00:54:10;15.90;99.90
14893;DHT22;7538;53.626;9.906;2022-09-09T00:56:47;15.70;99.90
14893;DHT22;7538;53.626;9.906;2022-09-09T00:59:24;15.70;99.90
14893;DHT22;7538;53.626;9.906;2022-09-09T01:01:54;16.10;99.90
14893;DHT22;7538;53.626;9.906;2022-09-09T01:04:28;15.70;99.90
14893;DHT22;7538;53.626;9.906;2022-09-09T01:07:03;15.80;99.90
14893;DHT22;7538;53.626;9.906;2022-09-09T01:09:38;15.70;99.90
14893;DHT22;7538;53.626;9.906;2022-09-09T01:12:13;15.70;99.90
14893;DHT22;7538;53.626;9.906;2022-09-09T01:14:44;15.80;99.90
14893;DHT22;7538;53.626;9.906;2022-09-09T01:17:16;16.00;99.90
14893;DHT22;7538;53.626;9.906;2022-09-09T01:19:55;15.60;99.90
14893;DHT22;7538;53.626;9.906;2022-09-09T01:22:34;15.60;99.90
14893;DHT22;7538;53.626;9.906;2022-09-09T01:25:56;15.60;99.90
14893;DHT22;7538;53.626;9.906;2022-09-09T01:28:26;15.60;99.90
14893;DHT22;7538;53.626;9.906;2022-09-09T01:30:55;15.80;99.90
14893;DHT22;7538;53.626;9.906;2022-09-09T01:33:23;15.60;99.90
14893;DHT22;7538;53.626;9.906;2022-09-09T01:35:52;15.50;99.90
14893;DHT22;7538;53.626;9.906;2022-09-09T01:38:21;15.40;99.90
14893;DHT22;7538;53.626;9.906;2022-09-09T01:40:50;15.40;99.90
14893;DHT22;7538;53.626;9.906;2022-09-09T01:43:18;15.30;99.90
14893;DHT22;7538;53.626;9.906;2022-09-09T01:45:46;15.50;99.90
14893;DHT22;7538;53.626;9.906;2022-09-09T01:48:15;15.50;99.90
14893;DHT22;7538;53.626;9.906;2022-09-09T01:50:43;15.40;99.90
14893;DHT22;7538;53.626;9.906;2022-09-09T01:53:14;15.40;99.90
14893;DHT22;7538;53.626;9.906;2022-09-09T01:55:47;15.40;99.90
14893;DHT22;7538;53.626;9.906;2022-09-09T01:58:25;15.40;99.90
14893;DHT22;7538;53.626;9.906;2022-09-09T02:01:02;15.40;99.90
14893;DHT22;7538;53.626;9.906;2022-09-09T02:03:32;15.40;99.90
14893;DHT22;7538;53.626;9.906;2022-09-09T02:06:07;15.40;99.90
14893;DHT22;7538;53.626;9.906;2022-09-09T02:08:42;15.40;99.90
14893;DHT22;7538;53.626;9.906;2022-09-09T02:11:13;15.40;99.90
14893;DHT22;7538;53.626;9.906;2022-09-09T02:13:44;15.50;99.90
14893;DHT22;7538;53.626;9.906;2022-09-09T02:16:16;15.40;99.90
14893;DHT22;7538;53.626;9.906;2022-09-09T02:18:49;15.40;99.90
14893;DHT22;7538;53.626;9.906;2022-09-09T02:21:17;15.40;99.90
14893;DHT22;7538;53.626;9.906;2022-09-09T02:23:47;15.50;99.90
14893;DHT22;7538;53.626;9.906;2022-09-09T02:26:19;15.40;99.90
14893;DHT22;7538;53.626;9.906;2022-09-09T02:31:22;15.60;99.90
14893;DHT22;7538;53.626;9.906;2022-09-09T02:33:54;15.40;99.90
14893;DHT22;7538;53.626;9.906;2022-09-09T02:36:23;15.30;99.90
14893;DHT22;7538;53.626;9.906;2022-09-09T02:38:51;15.20;99.90
14893;DHT22;7538;53.626;9.906;2022-09-09T02:41:22;15.10;99.90
14893;DHT22;7538;53.626;9.906;2022-09-09T02:43:52;15.40;99.90
14893;DHT22;7538;53.626;9.906;2022-09-09T02:46:32;15.10;99.90
14893;DHT22;7538;53.626;9.906;2022-09-09T02:49:08;15.10;99.90
14893;DHT22;7538;53.626;9.906;2022-09-09T02:51:46;15.10;99.90
14893;DHT22;7538;53.626;9.906;2022-09-09T02:54:24;15.50;99.90
14893;DHT22;7538;53.626;9.906;2022-09-09T02:56:54;11.40;99.90
14893;DHT22;7538;53.626;9.906;2022-09-09T02:59:24;15.00;99.90
14893;DHT22;7538;53.626;9.906;2022-09-09T03:01:51;15.00;99.90
14893;DHT22;7538;53.626;9.906;2022-09-09T03:04:18;15.00;99.90
14893;DHT22;7538;53.626;9.906;2022-09-09T03:06:46;14.90;99.90
14893;DHT22;7538;53.626;9.906;2022-09-09T03:09:13;14.90;99.90
14893;DHT22;7538;53.626;9.906;2022-09-09T03:11:40;13.40;99.90
14893;DHT22;7538;53.626;9.906;2022-09-09T03:14:06;15.00;99.90
14893;DHT22;7538;53.626;9.906;2022-09-09T03:16:35;14.80;99.90
14893;DHT22;7538;53.626;9.906;2022-09-09T03:19:02;15.00;99.90
14893;DHT22;7538;53.626;9.906;2022-09-09T03:21:29;14.90;99.90
14893;DHT22;7538;53.626;9.906;2022-09-09T03:23:58;14.90;99.90
14893;DHT22;7538;53.626;9.906;2022-09-09T03:26:25;14.80;99.90
14893;DHT22;7538;53.626;9.906;2022-09-09T03:31:19;14.70;99.90
14893;DHT22;7538;53.626;9.906;2022-09-09T03:33:48;14.80;99.90
14893;DHT22;7538;53.626;9.906;2022-09-09T03:36:15;14.80;99.90
14893;DHT22;7538;53.626;9.906;2022-09-09T03:38:42;14.80;99.90
14893;DHT22;7538;53.626;9.906;2022-09-09T03:43:36;14.70;99.90
14893;DHT22;7538;53.626;9.906;2022-09-09T03:48:30;14.70;99.90
14893;DHT22;7538;53.626;9.906;2022-09-09T03:50:58;14.70;99.90
14893;DHT22;7538;53.626;9.906;2022-09-09T03:53:27;14.80;99.90
14893;DHT22;7538;53.626;9.906;2022-09-09T03:55:56;14.70;99.90
14893;DHT22;7538;53.626;9.906;2022-09-09T03:58:25;14.70;99.90
14893;DHT22;7538;53.626;9.906;2022-09-09T04:00:56;14.60;99.90
14893;DHT22;7538;53.626;9.906;2022-09-09T04:03:25;14.60;99.90
14893;DHT22;7538;53.626;9.906;2022-09-09T04:16:10;14.40;99.90
14893;DHT22;7538;53.626;9.906;2022-09-09T04:23:38;14.40;99.90
14893;DHT22;7538;53.626;9.906;2022-09-09T04:28:34;14.30;99.90
14893;DHT22;7538;53.626;9.906;2022-09-09T04:31:06;14.30;99.90
14893;DHT22;7538;53.626;9.906;2022-09-09T04:33:36;14.10;99.90
14893;DHT22;7538;53.626;9.906;2022-09-09T04:50:56;14.40;99.90
14893;DHT22;7538;53.626;9.906;2022-09-09T04:53:26;14.30;99.90
14893;DHT22;7538;53.626;9.906;2022-09-09T04:56:00;16.80;99.90
14893;DHT22;7538;53.626;9.906;2022-09-09T04:58:27;14.30;99.90
14893;DHT22;7538;53.626;9.906;2022-09-09T05:15:51;14.50;99.90
14893;DHT22;7538;53.626;9.906;2022-09-09T05:25:41;14.50;99.90
14893;DHT22;7538;53.626;9.906;2022-09-09T05:50:22;14.80;99.90
14893;DHT22;7538;53.626;9.906;2022-09-09T05:55:16;15.10;99.90
14893;DHT22;7538;53.626;9.906;2022-09-09T05:57:48;15.10;99.90
14893;DHT22;7538;53.626;9.906;2022-09-09T06:02:50;15.30;99.90
14893;DHT22;7538;53.626;9.906;2022-09-09T06:05:19;11.80;99.90
14893;DHT22;7538;53.626;9.906;2022-09-09T06:29:58;16.30;99.90
14893;DHT22;7538;53.626;9.906;2022-09-09T06:34:54;16.20;99.90
14893;DHT22;7538;53.626;9.906;2022-09-09T06:52:07;16.40;99.90
14893;DHT22;7538;53.626;9.906;2022-09-09T06:59:32;18.60;99.90
14893;DHT22;7538;53.626;9.906;2022-09-09T07:11:50;20.00;99.90
14893;DHT22;7538;53.626;9.906;2022-09-09T07:14:18;19.90;99.90
14893;DHT22;7538;53.626;9.906;2022-09-09T07:21:41;19.20;99.90
14893;DHT22;7538;53.626;9.906;2022-09-09T07:24:10;19.20;99.90
14893;DHT22;7538;53.626;9.906;2022-09-09T07:26:39;19.00;99.90
14893;DHT22;7538;53.626;9.906;2022-09-09T07:31:38;18.80;99.90
14893;DHT22;7538;53.626;9.906;2022-09-09T07:34:05;18.80;99.90
14893;DHT22;7538;53.626;9.906;2022-09-09T07:36:35;18.90;99.90
14893;DHT22;7538;53.626;9.906;2022-09-09T07:39:04;19.00;99.90
14893;DHT22;7538;53.626;9.906;2022-09-09T07:41:33;18.80;99.90
14893;DHT22;7538;53.626;9.906;2022-09-09T07:44:04;18.70;99.90
14893;DHT22;7538;53.626;9.906;2022-09-09T07:51:30;18.50;99.90
14893;DHT22;7538;53.626;9.906;2022-09-09T07:54:07;18.60;99.90
14893;DHT22;7538;53.626;9.906;2022-09-09T07:56:35;18.60;99.90
14893;DHT22;7538;53.626;9.906;2022-09-09T07:59:04;18.60;99.90
14893;DHT22;7538;53.626;9.906;2022-09-09T08:01:33;18.50;99.90
14893;DHT22;7538;53.626;9.906;2022-09-09T08:04:04;18.50;99.90
14893;DHT22;7538;53.626;9.906;2022-09-09T08:06:36;18.50;99.90
14893;DHT22;7538;53.626;9.906;2022-09-09T08:11:34;18.80;99.90
14893;DHT22;7538;53.626;9.906;2022-09-09T08:14:03;18.70;99.90
14893;DHT22;7538;53.626;9.906;2022-09-09T08:16:32;19.00;99.90
14893;DHT22;7538;53.626;9.906;2022-09-09T08:19:02;19.50;99.90
14893;DHT22;7538;53.626;9.906;2022-09-09T08:21:31;19.90;99.90
14893;DHT22;7538;53.626;9.906;2022-09-09T08:23:59;20.10;99.90
14893;DHT22;7538;53.626;9.906;2022-09-09T08:26:28;20.50;99.90
14893;DHT22;7538;53.626;9.906;2022-09-09T08:28:58;20.90;99.90
14893;DHT22;7538;53.626;9.906;2022-09-09T08:31:28;21.30;99.90
14893;DHT22;7538;53.626;9.906;2022-09-09T08:33:57;21.90;99.90
14893;DHT22;7538;53.626;9.906;2022-09-09T08:36:26;22.10;99.90
14893;DHT22;7538;53.626;9.906;2022-09-09T08:38:56;22.40;99.90
14893;DHT22;7538;53.626;9.906;2022-09-09T08:44:36;22.40;99.90
14893;DHT22;7538;53.626;9.906;2022-09-09T08:47:13;22.40;99.90
14893;DHT22;7538;53.626;9.906;2022-09-09T08:52:45;22.00;99.90
14893;DHT22;7538;53.626;9.906;2022-09-09T08:55:22;22.00;99.90
14893;DHT22;7538;53.626;9.906;2022-09-09T08:57:52;22.10;99.90
14893;DHT22;7538;53.626;9.906;2022-09-09T09:02:54;21.50;99.90
14893;DHT22;7538;53.626;9.906;2022-09-09T09:05:31;21.40;99.90
14893;DHT22;7538;53.626;9.906;2022-09-09T09:08:05;21.40;99.90
14893;DHT22;7538;53.626;9.906;2022-09-09T09:10:43;21.50;99.90
14893;DHT22;7538;53.626;9.906;2022-09-09T09:13:15;21.90;99.90
14893;DHT22;7538;53.626;9.906;2022-09-09T09:15:44;22.10;99.90
14893;DHT22;7538;53.626;9.906;2022-09-09T09:18:16;21.80;99.90
14893;DHT22;7538;53.626;9.906;2022-09-09T09:20:50;21.80;99.90
14893;DHT22;7538;53.626;9.906;2022-09-09T09:23:22;21.90;99.90
14893;DHT22;7538;53.626;9.906;2022-09-09T09:25:56;21.90;99.90
14893;DHT22;7538;53.626;9.906;2022-09-09T09:28:26;21.90;99.90
14893;DHT22;7538;53.626;9.906;2022-09-09T09:30:56;22.10;99.90
14893;DHT22;7538;53.626;9.906;2022-09-09T09:33:27;22.20;99.90
14893;DHT22;7538;53.626;9.906;2022-09-09T09:38:26;22.10;99.90
14893;DHT22;7538;53.626;9.906;2022-09-09T09:40:54;22.10;99.90
14893;DHT22;7538;53.626;9.906;2022-09-09T09:43:26;22.20;99.90
14893;DHT22;7538;53.626;9.906;2022-09-09T09:50:52;21.80;99.90
14893;DHT22;7538;53.626;9.906;2022-09-09T09:53:22;21.90;99.90
14893;DHT22;7538;53.626;9.906;2022-09-09T09:55:55;22.70;99.90
14893;DHT22;7538;53.626;9.906;2022-09-09T09:58:23;23.60;99.90
14893;DHT22;7538;53.626;9.906;2022-09-09T10:00:52;23.60;99.90
14893;DHT22;7538;53.626;9.906;2022-09-09T10:03:26;24.90;99.90
14893;DHT22;7538;53.626;9.906;2022-09-09T10:05:55;26.90;99.90
14893;DHT22;7538;53.626;9.906;2022-09-09T10:08:24;26.90;99.90
14893;DHT22;7538;53.626;9.906;2022-09-09T10:11:06;27.40;99.90
14893;DHT22;7538;53.626;9.906;2022-09-09T10:13:42;27.80;99.90
14893;DHT22;7538;53.626;9.906;2022-09-09T10:16:25;27.80;99.90
14893;DHT22;7538;53.626;9.906;2022-09-09T10:19:00;27.50;99.90
14893;DHT22;7538;53.626;9.906;2022-09-09T10:27:48;27.30;99.90
14893;DHT22;7538;53.626;9.906;2022-09-09T10:30:18;27.80;99.90
14893;DHT22;7538;53.626;9.906;2022-09-09T10:32:49;28.30;99.90
14893;DHT22;7538;53.626;9.906;2022-09-09T10:35:30;28.70;99.90
14893;DHT22;7538;53.626;9.906;2022-09-09T10:38:11;28.90;99.90
14893;DHT22;7538;53.626;9.906;2022-09-09T10:40:43;29.10;99.90
14893;DHT22;7538;53.626;9.906;2022-09-09T10:43:22;29.20;98.70
14893;DHT22;7538;53.626;9.906;2022-09-09T10:46:00;32.60;99.80
14893;DHT22;7538;53.626;9.906;2022-09-09T10:48:38;29.20;92.10
14893;DHT22;7538;53.626;9.906;2022-09-09T10:51:21;28.60;93.00
14893;DHT22;7538;53.626;9.906;2022-09-09T10:53:59;30.00;99.50
14893;DHT22;7538;53.626;9.906;2022-09-09T10:56:29;27.70;95.30
14893;DHT22;7538;53.626;9.906;2022-09-09T10:59:00;27.30;94.90
14893;DHT22;7538;53.626;9.906;2022-09-09T11:01:37;26.70;96.50
14893;DHT22;7538;53.626;9.906;2022-09-09T11:04:10;26.20;95.70
14893;DHT22;7538;53.626;9.906;2022-09-09T11:06:41;26.00;99.40
14893;DHT22;7538;53.626;9.906;2022-09-09T11:09:16;25.80;96.50
14893;DHT22;7538;53.626;9.906;2022-09-09T11:11:46;25.60;98.10
14893;DHT22;7538;53.626;9.906;2022-09-09T11:14:21;25.40;96.70
14893;DHT22;7538;53.626;9.906;2022-09-09T11:16:54;25.30;98.90
14893;DHT22;7538;53.626;9.906;2022-09-09T11:19:27;25.30;97.60
14893;DHT22;7538;53.626;9.906;2022-09-09T11:21:59;25.60;99.00
14893;DHT22;7538;53.626;9.906;2022-09-09T11:24:32;25.40;96.50
14893;DHT22;7538;53.626;9.906;2022-09-09T11:27:06;25.30;96.00
14893;DHT22;7538;53.626;9.906;2022-09-09T11:30:02;25.30;97.80
14893;DHT22;7538;53.626;9.906;2022-09-09T11:32:54;25.20;98.50
14893;DHT22;7538;53.626;9.906;2022-09-09T11:35:33;24.80;98.50
14893;DHT22;7538;53.626;9.906;2022-09-09T11:38:16;24.70;99.90
14893;DHT22;7538;53.626;9.906;2022-09-09T11:40:47;24.70;97.80
14893;DHT22;7538;53.626;9.906;2022-09-09T11:43:24;24.70;97.70
14893;DHT22;7538;53.626;9.906;2022-09-09T11:45:54;24.80;97.30
14893;DHT22;7538;53.626;9.906;2022-09-09T11:48:28;25.00;98.60
14893;DHT22;7538;53.626;9.906;2022-09-09T11:51:00;24.90;96.80
14893;DHT22;7538;53.626;9.906;2022-09-09T11:53:28;24.90;96.50
14893;DHT22;7538;53.626;9.906;2022-09-09T11:56:13;25.00;97.20
14893;DHT22;7538;53.626;9.906;2022-09-09T11:58:55;24.90;97.30
14893;DHT22;7538;53.626;9.906;2022-09-09T12:01:35;25.00;97.50
14893;DHT22;7538;53.626;9.906;2022-09-09T12:07:04;24.90;95.50
14893;DHT22;7538;53.626;9.906;2022-09-09T12:09:45;24.70;96.50
14893;DHT22;7538;53.626;9.906;2022-09-09T12:12:27;24.50;96.80
14893;DHT22;7538;53.626;9.906;2022-09-09T12:15:00;24.30;97.10
14893;DHT22;7538;53.626;9.906;2022-09-09T12:17:29;24.20;97.20
14893;DHT22;7538;53.626;9.906;2022-09-09T12:20:13;24.00;98.60
14893;DHT22;7538;53.626;9.906;2022-09-09T12:22:50;24.00;97.70
14893;DHT22;7538;53.626;9.906;2022-09-09T12:25:26;23.90;99.50
14893;DHT22;7538;53.626;9.906;2022-09-09T12:28:04;24.00;99.90
14893;DHT22;7538;53.626;9.906;2022-09-09T12:30:40;24.00;99.90
14893;DHT22;7538;53.626;9.906;2022-09-09T12:33:12;24.20;99.90
14893;DHT22;7538;53.626;9.906;2022-09-09T12:35:43;24.10;99.90
14893;DHT22;7538;53.626;9.906;2022-09-09T12:38:14;24.00;99.90
14893;DHT22;7538;53.626;9.906;2022-09-09T12:40:54;23.50;99.90
14893;DHT22;7538;53.626;9.906;2022-09-09T12:43:24;23.30;99.90
14893;DHT22;7538;53.626;9.906;2022-09-09T12:45:53;23.00;99.90
14893;DHT22;7538;53.626;9.906;2022-09-09T12:48:28;22.90;99.90
14893;DHT22;7538;53.626;9.906;2022-09-09T12:50:57;22.70;99.90
14893;DHT22;7538;53.626;9.906;2022-09-09T12:53:28;22.70;99.90
14893;DHT22;7538;53.626;9.906;2022-09-09T12:55:58;22.60;99.90
14893;DHT22;7538;53.626;9.906;2022-09-09T12:58:27;22.60;99.90
14893;DHT22;7538;53.626;9.906;2022-09-09T13:00:59;22.40;99.90
14893;DHT22;7538;53.626;9.906;2022-09-09T13:03:27;22.40;99.90
14893;DHT22;7538;53.626;9.906;2022-09-09T13:05:57;22.30;99.90
14893;DHT22;7538;53.626;9.906;2022-09-09T13:08:26;22.10;99.90
14893;DHT22;7538;53.626;9.906;2022-09-09T13:10:55;22.00;99.90
14893;DHT22;7538;53.626;9.906;2022-09-09T13:13:29;21.60;99.90
14893;DHT22;7538;53.626;9.906;2022-09-09T13:16:00;21.30;99.90
14893;DHT22;7538;53.626;9.906;2022-09-09T13:18:29;20.90;99.90
14893;DHT22;7538;53.626;9.906;2022-09-09T13:21:00;20.50;99.90
14893;DHT22;7538;53.626;9.906;2022-09-09T13:23:30;19.60;99.90
14893;DHT22;7538;53.626;9.906;2022-09-09T13:25:59;18.70;99.90
14893;DHT22;7538;53.626;9.906;2022-09-09T13:28:29;18.00;99.90
14893;DHT22;7538;53.626;9.906;2022-09-09T13:30:58;17.60;99.90
14893;DHT22;7538;53.626;9.906;2022-09-09T13:33:33;17.10;99.90
14893;DHT22;7538;53.626;9.906;2022-09-09T13:36:02;17.00;99.90
14893;DHT22;7538;53.626;9.906;2022-09-09T13:38:37;16.90;99.90
14893;DHT22;7538;53.626;9.906;2022-09-09T13:41:06;16.80;99.90
14893;DHT22;7538;53.626;9.906;2022-09-09T13:43:38;16.60;99.90
14893;DHT22;7538;53.626;9.906;2022-09-09T13:46:30;16.60;99.90
14893;DHT22;7538;53.626;9.906;2022-09-09T13:48:59;16.30;99.90
14893;DHT22;7538;53.626;9.906;2022-09-09T13:51:33;16.20;99.90
14893;DHT22;7538;53.626;9.906;2022-09-09T13:54:03;14.10;99.90
14893;DHT22;7538;53.626;9.906;2022-09-09T13:56:31;16.00;99.90
14893;DHT22;7538;53.626;9.906;2022-09-09T13:59:03;16.10;99.90
14893;DHT22;7538;53.626;9.906;2022-09-09T14:04:00;16.00;99.90
14893;DHT22;7538;53.626;9.906;2022-09-09T14:06:27;16.10;99.90
14893;DHT22;7538;53.626;9.906;2022-09-09T14:08:58;16.40;99.90
14893;DHT22;7538;53.626;9.906;2022-09-09T14:11:25;16.30;99.90
14893;DHT22;7538;53.626;9.906;2022-09-09T14:13:51;16.30;99.90
14893;DHT22;7538;53.626;9.906;2022-09-09T14:16:20;16.40;99.90
14893;DHT22;7538;53.626;9.906;2022-09-09T14:18:50;16.50;99.90
14893;DHT22;7538;53.626;9.906;2022-09-09T14:21:17;16.60;99.90
14893;DHT22;7538;53.626;9.906;2022-09-09T14:23:44;16.60;99.90
14893;DHT22;7538;53.626;9.906;2022-09-09T14:26:17;16.70;99.90
14893;DHT22;7538;53.626;9.906;2022-09-09T14:28:47;17.10;99.90
14893;DHT22;7538;53.626;9.906;2022-09-09T14:31:40;16.90;99.90
14893;DHT22;7538;53.626;9.906;2022-09-09T14:34:13;15.30;99.90
14893;DHT22;7538;53.626;9.906;2022-09-09T14:36:45;17.30;99.90
14893;DHT22;7538;53.626;9.906;2022-09-09T14:39:16;17.00;99.90
14893;DHT22;7538;53.626;9.906;2022-09-09T14:41:43;16.90;99.90
14893;DHT22;7538;53.626;9.906;2022-09-09T14:44:11;16.90;99.90
14893;DHT22;7538;53.626;9.906;2022-09-09T14:46:39;17.00;99.90
14893;DHT22;7538;53.626;9.906;2022-09-09T14:49:07;17.00;99.90
14893;DHT22;7538;53.626;9.906;2022-09-09T14:51:36;16.90;99.90
14893;DHT22;7538;53.626;9.906;2022-09-09T14:54:03;16.90;99.90
14893;DHT22;7538;53.626;9.906;2022-09-09T14:56:31;17.00;99.90
14893;DHT22;7538;53.626;9.906;2022-09-09T14:59:00;17.00;99.90
14893;DHT22;7538;53.626;9.906;2022-09-09T15:01:30;16.90;99.90
14893;DHT22;7538;53.626;9.906;2022-09-09T15:04:00;17.00;99.90
14893;DHT22;7538;53.626;9.906;2022-09-09T15:06:28;17.00;99.90
14893;DHT22;7538;53.626;9.906;2022-09-09T15:08:56;16.90;99.90
14893;DHT22;7538;53.626;9.906;2022-09-09T15:11:26;17.00;99.90
14893;DHT22;7538;53.626;9.906;2022-09-09T15:13:54;17.00;99.90
14893;DHT22;7538;53.626;9.906;2022-09-09T15:16:23;17.10;99.90
14893;DHT22;7538;53.626;9.906;2022-09-09T15:18:51;17.20;99.90
14893;DHT22;7538;53.626;9.906;2022-09-09T15:21:23;17.20;99.90
14893;DHT22;7538;53.626;9.906;2022-09-09T15:23:50;17.20;99.90
14893;DHT22;7538;53.626;9.906;2022-09-09T15:26:17;20.30;99.90
14893;DHT22;7538;53.626;9.906;2022-09-09T15:28:45;17.00;99.90
14893;DHT22;7538;53.626;9.906;2022-09-09T15:31:14;17.00;99.90
14893;DHT22;7538;53.626;9.906;2022-09-09T15:33:47;17.00;99.90
14893;DHT22;7538;53.626;9.906;2022-09-09T15:36:15;17.10;99.90
14893;DHT22;7538;53.626;9.906;2022-09-09T15:38:44;17.10;99.90
14893;DHT22;7538;53.626;9.906;2022-09-09T15:41:11;17.00;99.90
14893;DHT22;7538;53.626;9.906;2022-09-09T15:43:42;17.10;99.90
14893;DHT22;7538;53.626;9.906;2022-09-09T15:46:23;17.10;99.90
14893;DHT22;7538;53.626;9.906;2022-09-09T15:48:51;17.20;99.90
14893;DHT22;7538;53.626;9.906;2022-09-09T15:51:22;17.20;99.90
14893;DHT22;7538;53.626;9.906;2022-09-09T15:53:59;17.20;99.90
14893;DHT22;7538;53.626;9.906;2022-09-09T15:56:27;17.10;99.90
14893;DHT22;7538;53.626;9.906;2022-09-09T15:58:57;17.10;99.90
14893;DHT22;7538;53.626;9.906;2022-09-09T16:01:25;17.20;99.90
14893;DHT22;7538;53.626;9.906;2022-09-09T16:03:52;17.20;99.90
14893;DHT22;7538;53.626;9.906;2022-09-09T16:06:21;17.30;99.90
14893;DHT22;7538;53.626;9.906;2022-09-09T16:08:50;17.30;99.90
14893;DHT22;7538;53.626;9.906;2022-09-09T16:11:21;17.30;99.90
14893;DHT22;7538;53.626;9.906;2022-09-09T16:13:50;17.30;99.90
14893;DHT22;7538;53.626;9.906;2022-09-09T16:16:18;17.30;99.90
14893;DHT22;7538;53.626;9.906;2022-09-09T16:18:49;17.40;99.90
14893;DHT22;7538;53.626;9.906;2022-09-09T16:21:18;17.50;99.90
14893;DHT22;7538;53.626;9.906;2022-09-09T16:23:46;17.50;99.90
14893;DHT22;7538;53.626;9.906;2022-09-09T16:26:15;17.50;99.90
14893;DHT22;7538;53.626;9.906;2022-09-09T16:28:44;17.50;99.90
14893;DHT22;7538;53.626;9.906;2022-09-09T16:31:14;17.50;99.90
14893;DHT22;7538;53.626;9.906;2022-09-09T16:33:42;17.40;99.90
14893;DHT22;7538;53.626;9.906;2022-09-09T16:36:11;17.40;99.90
14893;DHT22;7538;53.626;9.906;2022-09-09T16:38:39;17.60;99.90
14893;DHT22;7538;53.626;9.906;2022-09-09T16:41:08;17.60;99.90
14893;DHT22;7538;53.626;9.906;2022-09-09T16:43:36;17.70;99.90
14893;DHT22;7538;53.626;9.906;2022-09-09T16:46:12;17.70;99.90
14893;DHT22;7538;53.626;9.906;2022-09-09T16:48:41;17.70;99.90
14893;DHT22;7538;53.626;9.906;2022-09-09T16:51:12;17.70;99.90
14893;DHT22;7538;53.626;9.906;2022-09-09T16:53:40;17.70;99.90
14893;DHT22;7538;53.626;9.906;2022-09-09T16:56:09;17.60;99.90
14893;DHT22;7538;53.626;9.906;2022-09-09T16:58:37;17.60;99.90
14893;DHT22;7538;53.626;9.906;2022-09-09T17:01:05;17.60;99.90
14893;DHT22;7538;53.626;9.906;2022-09-09T17:03:33;17.60;99.90
14893;DHT22;7538;53.626;9.906;2022-09-09T17:05:59;17.60;99.90
14893;DHT22;7538;53.626;9.906;2022-09-09T17:08:28;17.60;99.90
14893;DHT22;7538;53.626;9.906;2022-09-09T17:10:56;17.70;99.90
14893;DHT22;7538;53.626;9.906;2022-09-09T17:13:24;17.60;99.90
14893;DHT22;7538;53.626;9.906;2022-09-09T17:15:51;17.70;99.90
14893;DHT22;7538;53.626;9.906;2022-09-09T17:18:20;16.40;99.90
14893;DHT22;7538;53.626;9.906;2022-09-09T17:20:48;17.10;99.90
14893;DHT22;7538;53.626;9.906;2022-09-09T17:23:15;17.70;99.90
14893;DHT22;7538;53.626;9.906;2022-09-09T17:25:56;17.70;99.90
14893;DHT22;7538;53.626;9.906;2022-09-09T17:28:24;17.60;99.90
14893;DHT22;7538;53.626;9.906;2022-09-09T17:30:56;17.40;99.90
14893;DHT22;7538;53.626;9.906;2022-09-09T17:33:25;17.40;99.90
14893;DHT22;7538;53.626;9.906;2022-09-09T17:35:52;17.40;99.90
14893;DHT22;7538;53.626;9.906;2022-09-09T17:38:20;17.30;99.90
14893;DHT22;7538;53.626;9.906;2022-09-09T17:40:47;17.30;99.90
14893;DHT22;7538;53.626;9.906;2022-09-09T17:43:14;17.30;99.90
14893;DHT22;7538;53.626;9.906;2022-09-09T17:45:41;17.30;99.90
14893;DHT22;7538;53.626;9.906;2022-09-09T17:48:08;17.20;99.90
14893;DHT22;7538;53.626;9.906;2022-09-09T17:50:36;17.20;99.90
14893;DHT22;7538;53.626;9.906;2022-09-09T17:53:03;17.20;99.90
14893;DHT22;7538;53.626;9.906;2022-09-09T17:55:32;17.10;99.90
14893;DHT22;7538;53.626;9.906;2022-09-09T17:57:59;17.10;99.90
14893;DHT22;7538;53.626;9.906;2022-09-09T18:00:26;17.00;99.90
14893;DHT22;7538;53.626;9.906;2022-09-09T18:02:55;17.00;99.90
14893;DHT22;7538;53.626;9.906;2022-09-09T18:05:22;16.90;99.90
14893;DHT22;7538;53.626;9.906;2022-09-09T18:07:51;16.90;99.90
14893;DHT22;7538;53.626;9.906;2022-09-09T18:10:18;16.80;99.90
14893;DHT22;7538;53.626;9.906;2022-09-09T18:12:44;16.80;99.90
14893;DHT22;7538;53.626;9.906;2022-09-09T18:15:11;16.70;99.90
14893;DHT22;7538;53.626;9.906;2022-09-09T18:17:41;16.70;99.90
14893;DHT22;7538;53.626;9.906;2022-09-09T18:20:10;16.70;99.90
14893;DHT22;7538;53.626;9.906;2022-09-09T18:22:37;16.60;99.90
14893;DHT22;7538;53.626;9.906;2022-09-09T18:25:06;16.60;99.90
14893;DHT22;7538;53.626;9.906;2022-09-09T18:27:36;16.60;99.90
14893;DHT22;7538;53.626;9.906;2022-09-09T18:30:03;16.60;99.90
14893;DHT22;7538;53.626;9.906;2022-09-09T18:32:30;16.60;99.90
14893;DHT22;7538;53.626;9.906;2022-09-09T18:35:01;14.30;99.90
14893;DHT22;7538;53.626;9.906;2022-09-09T18:37:28;16.60;99.90
14893;DHT22;7538;53.626;9.906;2022-09-09T18:39:58;16.60;99.90
14893;DHT22;7538;53.626;9.906;2022-09-09T18:42:27;16.60;99.90
14893;DHT22;7538;53.626;9.906;2022-09-09T18:44:54;16.60;99.90
14893;DHT22;7538;53.626;9.906;2022-09-09T18:47:21;16.60;99.90
14893;DHT22;7538;53.626;9.906;2022-09-09T18:49:49;16.60;99.90
14893;DHT22;7538;53.626;9.906;2022-09-09T18:52:16;16.60;99.90
14893;DHT22;7538;53.626;9.906;2022-09-09T18:54:43;16.60;99.90
14893;DHT22;7538;53.626;9.906;2022-09-09T18:57:10;16.60;99.90
14893;DHT22;7538;53.626;9.906;2022-09-09T18:59:39;16.60;99.90
14893;DHT22;7538;53.626;9.906;2022-09-09T19:02:06;16.60;99.90
14893;DHT22;7538;53.626;9.906;2022-09-09T19:04:33;16.60;99.90
14893;DHT22;7538;53.626;9.906;2022-09-09T19:07:00;16.60;99.90
14893;DHT22;7538;53.626;9.906;2022-09-09T19:09:28;16.60;99.90
14893;DHT22;7538;53.626;9.906;2022-09-09T19:11:56;16.60;99.90
14893;DHT22;7538;53.626;9.906;2022-09-09T19:14:24;16.60;99.90
14893;DHT22;7538;53.626;9.906;2022-09-09T19:16:52;20.20;99.90